Olympia Heights, Florida
Current Conditions -  °F | °C
As of 4:53 AM on Tuesday 21 Oct 2014 (Local Time) from KMIA Reporting Station
Overcast Overcast  
Wind Chill: 76°   Ceiling: 3300
Heat Index: 76°   Visibility: 8mi
Dew Point: 71°   Wind: 6mph
Humidity: 85%   Direction: 130°SE
Pressure: 29.91"   Gusts: NA
Location:  25.73°N, 80.35°W
Report Text: KMIA 210853Z 13005KT 8SM SCT020 BKN033 BKN110 OVC200 24/22 A2991 RMK AO2 SLP130 OCNL LTGIC DSNT SE-S CB DSNT SE-S T02440217 55009
Loading
Personal Weather Stations






























Interactive Weather Map
Tropical Storm Tracking
New forecast layout! Learn more

10-Day Weather Forecast

Advertisements
Track Severe Weather on mobile